createdAt,value
2019-02-26T00:00:51.927Z,1031.53
2019-02-26T00:02:05.405Z,1031.51
2019-02-26T00:03:22.369Z,1031.48
2019-02-26T00:04:38.121Z,1031.46
2019-02-26T00:05:50.220Z,1031.43
2019-02-26T00:07:06.523Z,1031.41
2019-02-26T00:08:31.651Z,1031.41
2019-02-26T00:09:42.702Z,1031.42
2019-02-26T00:10:57.053Z,1031.39
2019-02-26T00:12:13.717Z,1031.42
2019-02-26T00:13:31.865Z,1031.41
2019-02-26T00:14:45.294Z,1031.41
2019-02-26T00:16:03.825Z,1031.45
2019-02-26T00:17:23.368Z,1031.42
2019-02-26T00:18:36.792Z,1031.41
2019-02-26T00:19:47.729Z,1031.45
2019-02-26T00:20:58.868Z,1031.42
2019-02-26T00:22:13.762Z,1031.39
2019-02-26T00:23:27.821Z,1031.4
2019-02-26T00:24:38.075Z,1031.4
2019-02-26T00:25:52.051Z,1031.41
2019-02-26T00:27:03.208Z,1031.44
2019-02-26T00:28:17.203Z,1031.4
2019-02-26T00:29:30.235Z,1031.37
2019-02-26T00:30:42.461Z,1031.37
2019-02-26T00:31:52.909Z,1031.33
2019-02-26T00:33:05.346Z,1031.32
2019-02-26T00:34:16.653Z,1031.32
2019-02-26T00:35:27.832Z,1031.32
2019-02-26T00:36:38.150Z,1031.32
2019-02-26T00:37:49.228Z,1031.32
2019-02-26T00:39:03.472Z,1031.33
2019-02-26T00:40:16.833Z,1031.34
2019-02-26T00:41:29.054Z,1031.3
2019-02-26T00:42:45.126Z,1031.32
2019-02-26T00:44:07.071Z,1031.32
2019-02-26T00:45:16.145Z,1031.29
2019-02-26T00:46:39.646Z,1031.31
2019-02-26T00:47:49.291Z,1031.3
2019-02-26T00:49:00.807Z,1031.27
2019-02-26T00:50:16.423Z,1031.23
2019-02-26T00:51:28.644Z,1031.22
2019-02-26T00:52:40.074Z,1031.19
2019-02-26T00:53:52.637Z,1031.18
2019-02-26T00:55:08.971Z,1031.17
2019-02-26T00:56:18.694Z,1031.16
2019-02-26T00:57:40.586Z,1031.17
2019-02-26T00:58:52.109Z,1031.19
2019-02-26T01:00:03.320Z,1031.15
2019-02-26T01:01:19.291Z,1031.16
2019-02-26T01:02:31.019Z,1031.15
2019-02-26T01:03:40.737Z,1031.15
2019-02-26T01:04:56.657Z,1031.14
2019-02-26T01:06:09.438Z,1031.15
2019-02-26T01:07:19.479Z,1031.12
2019-02-26T01:08:35.728Z,1031.12
2019-02-26T01:09:52.397Z,1031.14
2019-02-26T01:11:06.320Z,1031.11
2019-02-26T01:12:19.569Z,1031.12
2019-02-26T01:13:32.255Z,1031.13
2019-02-26T01:14:43.579Z,1031.1
2019-02-26T01:15:55.768Z,1031.1
2019-02-26T01:17:05.034Z,1031.1
2019-02-26T01:18:22.795Z,1031.08
2019-02-26T01:19:36.772Z,1031.08
2019-02-26T01:20:50.660Z,1031.12
2019-02-26T01:22:06.948Z,1031.15
2019-02-26T01:23:18.712Z,1031.11
2019-02-26T01:24:34.148Z,1031.12
2019-02-26T01:25:43.258Z,1031.17
2019-02-26T01:26:56.953Z,1031.13
2019-02-26T01:28:06.856Z,1031.13
2019-02-26T01:29:26.038Z,1031.12
2019-02-26T01:30:38.917Z,1031.16
2019-02-26T01:31:51.630Z,1031.17
2019-02-26T01:33:04.962Z,1031.21
2019-02-26T01:34:18.058Z,1031.16
2019-02-26T01:35:30.672Z,1031.22
2019-02-26T01:36:44.814Z,1031.23
2019-02-26T01:37:58.520Z,1031.21
2019-02-26T01:39:11.934Z,1031.23
2019-02-26T01:40:28.342Z,1031.21
2019-02-26T01:41:45.277Z,1031.2
2019-02-26T01:43:03.026Z,1031.12
2019-02-26T01:44:12.843Z,1031.16
2019-02-26T01:45:24.254Z,1031.13
2019-02-26T01:46:38.895Z,1031.13
2019-02-26T01:47:50.842Z,1031.16
2019-02-26T01:49:04.525Z,1031.19
2019-02-26T01:50:16.013Z,1031.18
2019-02-26T01:51:26.594Z,1031.15
2019-02-26T01:52:37.839Z,1031.19
2019-02-26T01:53:49.019Z,1031.16
2019-02-26T01:55:02.744Z,1031.15
2019-02-26T01:56:12.821Z,1031.2
2019-02-26T01:57:27.135Z,1031.15
2019-02-26T01:58:37.608Z,1031.15
2019-02-26T01:59:56.821Z,1031.15
2019-02-26T02:01:09.938Z,1031.18
2019-02-26T02:02:30.162Z,1031.15
2019-02-26T02:03:39.644Z,1031.11
2019-02-26T02:04:57.760Z,1031.12
2019-02-26T02:06:14.023Z,1031.17
2019-02-26T02:07:25.953Z,1031.13
2019-02-26T02:08:39.789Z,1031.09
2019-02-26T02:10:00.469Z,1031.09
2019-02-26T02:11:11.109Z,1031.03
2019-02-26T02:12:25.929Z,1031.03
2019-02-26T02:13:44.150Z,1031.03
2019-02-26T02:14:53.554Z,1031.07
2019-02-26T02:16:04.461Z,1031.08
2019-02-26T02:17:16.045Z,1031.09
2019-02-26T02:18:27.502Z,1031.04
2019-02-26T02:19:37.219Z,1031.02
2019-02-26T02:20:46.574Z,1031.03
2019-02-26T02:21:56.416Z,1031
2019-02-26T02:23:07.197Z,1030.93
2019-02-26T02:24:17.453Z,1030.9
2019-02-26T02:25:33.730Z,1030.89
2019-02-26T02:26:50.354Z,1030.92
2019-02-26T02:28:05.175Z,1030.85
2019-02-26T02:29:21.630Z,1030.89
2019-02-26T02:30:38.860Z,1030.87
2019-02-26T02:31:48.639Z,1030.87
2019-02-26T02:33:08.404Z,1030.86
2019-02-26T02:34:32.819Z,1030.86
2019-02-26T02:35:48.284Z,1030.83
2019-02-26T02:36:57.926Z,1030.79
2019-02-26T02:38:07.012Z,1030.79
2019-02-26T02:39:20.851Z,1030.74
2019-02-26T02:40:34.323Z,1030.74
2019-02-26T02:41:55.252Z,1030.74
2019-02-26T02:43:07.911Z,1030.69
2019-02-26T02:44:26.291Z,1030.68
2019-02-26T02:45:35.485Z,1030.7
2019-02-26T02:46:46.545Z,1030.68
2019-02-26T02:48:00.273Z,1030.68
2019-02-26T02:49:17.892Z,1030.69
2019-02-26T02:50:27.736Z,1030.64
2019-02-26T02:51:39.512Z,1030.65
2019-02-26T02:52:50.781Z,1030.62
2019-02-26T02:54:06.992Z,1030.59
2019-02-26T02:55:24.631Z,1030.58
2019-02-26T02:56:36.203Z,1030.49
2019-02-26T02:57:53.000Z,1030.45
2019-02-26T02:59:08.824Z,1030.44
2019-02-26T03:00:23.631Z,1030.43
2019-02-26T03:01:39.667Z,1030.46
2019-02-26T03:02:59.606Z,1030.43
2019-02-26T03:04:09.311Z,1030.42
2019-02-26T03:05:31.976Z,1030.38
2019-02-26T03:06:52.812Z,1030.37
2019-02-26T03:08:08.558Z,1030.37
2019-02-26T03:09:27.183Z,1030.35
2019-02-26T03:10:46.240Z,1030.35
2019-02-26T03:11:55.923Z,1030.38
2019-02-26T03:13:05.501Z,1030.37
2019-02-26T03:14:21.370Z,1030.38
2019-02-26T03:15:39.086Z,1030.42
2019-02-26T03:16:56.458Z,1030.44
2019-02-26T03:18:12.354Z,1030.45
2019-02-26T03:19:23.663Z,1030.42
2019-02-26T03:20:41.769Z,1030.41
2019-02-26T03:21:53.170Z,1030.41
2019-02-26T03:23:06.464Z,1030.45
2019-02-26T03:24:28.267Z,1030.42
2019-02-26T03:25:41.962Z,1030.43
2019-02-26T03:26:59.917Z,1030.42
2019-02-26T03:28:09.461Z,1030.39
2019-02-26T03:29:18.554Z,1030.41
2019-02-26T03:30:33.702Z,1030.41
2019-02-26T03:31:55.066Z,1030.34
2019-02-26T03:33:05.162Z,1030.34
2019-02-26T03:34:20.178Z,1030.36
2019-02-26T03:35:33.103Z,1030.35
2019-02-26T03:36:45.086Z,1030.36
2019-02-26T03:37:57.782Z,1030.32
2019-02-26T03:39:11.084Z,1030.36
2019-02-26T03:40:21.379Z,1030.37
2019-02-26T03:41:39.014Z,1030.38
2019-02-26T03:42:56.931Z,1030.37
2019-02-26T03:44:13.599Z,1030.36
2019-02-26T03:45:24.629Z,1030.35
2019-02-26T03:46:34.349Z,1030.29
2019-02-26T03:47:43.923Z,1030.26
2019-02-26T03:48:55.809Z,1030.24
2019-02-26T03:50:09.947Z,1030.23
2019-02-26T03:51:18.998Z,1030.26
2019-02-26T03:52:31.514Z,1030.24
2019-02-26T03:53:42.177Z,1030.25
2019-02-26T03:54:52.991Z,1030.24
2019-02-26T03:56:11.707Z,1030.23
2019-02-26T03:57:25.380Z,1030.23
2019-02-26T03:58:34.676Z,1030.21
2019-02-26T03:59:43.776Z,1030.19
2019-02-26T04:00:53.528Z,1030.18
2019-02-26T04:02:15.261Z,1030.22
2019-02-26T04:03:32.059Z,1030.21
2019-02-26T04:04:49.611Z,1030.24
2019-02-26T04:06:12.130Z,1030.25
2019-02-26T04:07:22.695Z,1030.25
2019-02-26T04:08:39.058Z,1030.21
2019-02-26T04:09:58.533Z,1030.15
2019-02-26T04:11:08.570Z,1030.11
2019-02-26T04:12:25.295Z,1030.06
2019-02-26T04:13:43.281Z,1030.08
2019-02-26T04:15:01.713Z,1030.05
2019-02-26T04:16:11.298Z,1030.02
2019-02-26T04:17:23.101Z,1030.05
2019-02-26T04:18:42.758Z,1030.02
2019-02-26T04:19:56.130Z,1030.09
2019-02-26T04:21:11.943Z,1030.08
2019-02-26T04:22:26.621Z,1030.12
2019-02-26T04:23:44.383Z,1030.11
2019-02-26T04:25:00.634Z,1030.1
2019-02-26T04:26:18.572Z,1030.1
2019-02-26T04:27:39.224Z,1030.09
2019-02-26T04:28:51.171Z,1030.06
2019-02-26T04:30:02.730Z,1030.08
2019-02-26T04:31:19.575Z,1030.12
2019-02-26T04:32:29.437Z,1030.18
2019-02-26T04:33:48.561Z,1030.2
2019-02-26T04:35:06.625Z,1030.22
2019-02-26T04:36:16.881Z,1030.25
2019-02-26T04:37:30.565Z,1030.28
2019-02-26T04:38:45.515Z,1030.25
2019-02-26T04:40:02.098Z,1030.24
2019-02-26T04:41:19.254Z,1030.22
2019-02-26T04:42:29.319Z,1030.2
2019-02-26T04:43:46.521Z,1030.22
2019-02-26T04:45:08.862Z,1030.23
2019-02-26T04:46:18.840Z,1030.29
2019-02-26T04:47:36.556Z,1030.25
2019-02-26T04:48:57.847Z,1030.27
2019-02-26T04:50:08.924Z,1030.3
2019-02-26T04:51:23.711Z,1030.33
2019-02-26T04:52:38.248Z,1030.32
2019-02-26T04:53:51.935Z,1030.32
2019-02-26T04:55:07.164Z,1030.36
2019-02-26T04:56:16.296Z,1030.37
2019-02-26T04:57:25.708Z,1030.38
2019-02-26T04:58:37.192Z,1030.4
2019-02-26T04:59:52.845Z,1030.39
2019-02-26T05:01:12.934Z,1030.39
2019-02-26T05:02:26.620Z,1030.42
2019-02-26T05:03:35.729Z,1030.41
2019-02-26T05:04:45.032Z,1030.42
2019-02-26T05:05:57.090Z,1030.42
2019-02-26T05:07:16.962Z,1030.43
2019-02-26T05:08:29.307Z,1030.43
2019-02-26T05:09:50.014Z,1030.41
2019-02-26T05:11:06.804Z,1030.4
2019-02-26T05:12:40.123Z,1030.4
2019-02-26T05:13:49.567Z,1030.38
2019-02-26T05:14:58.934Z,1030.36
2019-02-26T05:16:12.281Z,1030.36
2019-02-26T05:17:23.909Z,1030.37
2019-02-26T05:18:38.506Z,1030.36
2019-02-26T05:19:58.786Z,1030.39
2019-02-26T05:21:19.371Z,1030.37
2019-02-26T05:22:35.879Z,1030.37
2019-02-26T05:23:46.426Z,1030.36
2019-02-26T05:25:07.322Z,1030.33
2019-02-26T05:26:24.606Z,1030.34
2019-02-26T05:27:36.309Z,1030.38
2019-02-26T05:28:53.665Z,1030.36
2019-02-26T05:30:02.845Z,1030.44
2019-02-26T05:31:23.072Z,1030.45
2019-02-26T05:32:39.959Z,1030.52
2019-02-26T05:33:52.403Z,1030.51
2019-02-26T05:35:06.628Z,1030.5
2019-02-26T05:36:23.015Z,1030.51
2019-02-26T05:37:40.903Z,1030.5
2019-02-26T05:38:52.382Z,1030.45
2019-02-26T05:40:10.233Z,1030.43
2019-02-26T05:41:27.038Z,1030.47
2019-02-26T05:42:36.401Z,1030.48
2019-02-26T05:43:49.255Z,1030.51
2019-02-26T05:45:11.279Z,1030.53
2019-02-26T05:46:24.886Z,1030.55
2019-02-26T05:47:37.076Z,1030.57
2019-02-26T05:48:57.501Z,1030.58
2019-02-26T05:50:19.665Z,1030.53
2019-02-26T05:51:33.497Z,1030.53
2019-02-26T05:52:49.693Z,1030.53
2019-02-26T05:54:15.200Z,1030.55
2019-02-26T05:55:29.887Z,1030.58
2019-02-26T05:56:41.204Z,1030.58
2019-02-26T05:57:56.714Z,1030.6
2019-02-26T05:59:09.460Z,1030.62
2019-02-26T06:00:30.223Z,1030.63
2019-02-26T06:01:43.790Z,1030.66
2019-02-26T06:03:06.108Z,1030.68
2019-02-26T06:04:21.720Z,1030.62
2019-02-26T06:05:32.981Z,1030.64
2019-02-26T06:06:50.961Z,1030.61
2019-02-26T06:08:07.497Z,1030.61
2019-02-26T06:09:19.465Z,1030.65
2019-02-26T06:10:36.529Z,1030.62
2019-02-26T06:11:47.652Z,1030.71
2019-02-26T06:13:00.149Z,1030.78
2019-02-26T06:14:18.071Z,1030.81
2019-02-26T06:15:36.252Z,1030.8
2019-02-26T06:16:48.154Z,1030.76
2019-02-26T06:18:01.193Z,1030.79
2019-02-26T06:19:11.001Z,1030.8
2019-02-26T06:20:26.565Z,1030.75
2019-02-26T06:21:44.210Z,1030.77
2019-02-26T06:22:59.568Z,1030.73
2019-02-26T06:24:08.597Z,1030.71
2019-02-26T06:25:24.259Z,1030.72
2019-02-26T06:26:36.058Z,1030.71
2019-02-26T06:27:50.853Z,1030.71
2019-02-26T06:29:10.949Z,1030.74
2019-02-26T06:30:29.602Z,1030.73
2019-02-26T06:31:40.011Z,1030.7
2019-02-26T06:32:59.533Z,1030.72
2019-02-26T06:34:21.197Z,1030.7
2019-02-26T06:35:31.847Z,1030.69
2019-02-26T06:36:48.855Z,1030.68
2019-02-26T06:38:01.995Z,1030.7
2019-02-26T06:39:20.189Z,1030.71
2019-02-26T06:40:39.787Z,1030.71
2019-02-26T06:41:56.470Z,1030.76
2019-02-26T06:43:12.850Z,1030.75
2019-02-26T06:44:22.084Z,1030.79
2019-02-26T06:45:31.824Z,1030.77
2019-02-26T06:46:48.089Z,1030.76
2019-02-26T06:48:00.333Z,1030.79
2019-02-26T06:49:16.924Z,1030.8
2019-02-26T06:50:34.557Z,1030.77
2019-02-26T06:51:49.797Z,1030.76
2019-02-26T06:53:04.362Z,1030.81
2019-02-26T06:54:22.612Z,1030.81
2019-02-26T06:55:36.775Z,1030.8
2019-02-26T06:56:48.404Z,1030.76
2019-02-26T06:58:00.268Z,1030.72
2019-02-26T06:59:12.094Z,1030.77
2019-02-26T07:00:24.451Z,1030.74
2019-02-26T07:01:37.755Z,1030.76
2019-02-26T07:02:49.574Z,1030.74
2019-02-26T07:04:02.675Z,1030.69
2019-02-26T07:05:15.043Z,1030.76
2019-02-26T07:06:30.154Z,1030.7
2019-02-26T07:07:42.608Z,1030.72
2019-02-26T07:08:54.578Z,1030.7
2019-02-26T07:10:04.089Z,1030.7
2019-02-26T07:11:26.118Z,1030.72
2019-02-26T07:12:43.052Z,1030.69
2019-02-26T07:13:56.026Z,1030.72
2019-02-26T07:15:12.754Z,1030.69
2019-02-26T07:16:22.305Z,1030.73
2019-02-26T07:17:33.663Z,1030.77
2019-02-26T07:18:48.976Z,1030.8
2019-02-26T07:20:00.285Z,1030.86
2019-02-26T07:21:10.847Z,1030.89
2019-02-26T07:22:19.934Z,1030.87
2019-02-26T07:23:30.618Z,1030.89
2019-02-26T07:24:46.775Z,1030.91
2019-02-26T07:26:00.969Z,1030.91
2019-02-26T07:27:14.023Z,1030.89
2019-02-26T07:28:24.986Z,1030.87
2019-02-26T07:29:39.437Z,1030.88
2019-02-26T07:30:57.423Z,1030.84
2019-02-26T07:32:17.200Z,1030.82
2019-02-26T07:33:30.573Z,1030.81
2019-02-26T07:34:47.772Z,1030.82
2019-02-26T07:36:02.198Z,1030.83
2019-02-26T07:37:15.366Z,1030.8
2019-02-26T07:38:27.461Z,1030.84
2019-02-26T07:39:51.703Z,1030.81
2019-02-26T07:41:03.275Z,1030.82
2019-02-26T07:42:14.503Z,1030.79
2019-02-26T07:43:26.690Z,1030.79
2019-02-26T07:44:44.366Z,1030.75
2019-02-26T07:45:54.183Z,1030.79
2019-02-26T07:47:04.416Z,1030.79
2019-02-26T07:48:20.607Z,1030.76
2019-02-26T07:49:36.341Z,1030.75
2019-02-26T07:50:47.802Z,1030.78
2019-02-26T07:52:00.267Z,1030.74
2019-02-26T07:53:17.738Z,1030.75
2019-02-26T07:54:30.089Z,1030.72
2019-02-26T07:55:44.475Z,1030.77
2019-02-26T07:56:55.099Z,1030.73
2019-02-26T07:58:11.464Z,1030.69
2019-02-26T07:59:27.543Z,1030.71
2019-02-26T08:00:49.708Z,1030.7
2019-02-26T08:02:03.254Z,1030.73
2019-02-26T08:03:19.327Z,1030.75
2019-02-26T08:04:36.227Z,1030.73
2019-02-26T08:05:48.472Z,1030.74
2019-02-26T08:07:01.397Z,1030.76
2019-02-26T08:08:12.568Z,1030.75
2019-02-26T08:09:26.267Z,1030.81
2019-02-26T08:10:39.247Z,1030.81
2019-02-26T08:11:55.927Z,1030.77
2019-02-26T08:13:11.465Z,1030.78
2019-02-26T08:14:21.486Z,1030.74
2019-02-26T08:15:35.063Z,1030.71
2019-02-26T08:16:49.329Z,1030.73
2019-02-26T08:18:09.063Z,1030.71
2019-02-26T08:19:18.830Z,1030.73
2019-02-26T08:20:33.319Z,1030.77
2019-02-26T08:21:47.677Z,1030.75
2019-02-26T08:23:01.733Z,1030.76
2019-02-26T08:24:12.975Z,1030.77
2019-02-26T08:25:29.762Z,1030.78
2019-02-26T08:26:40.438Z,1030.79
2019-02-26T08:27:56.305Z,1030.8
2019-02-26T08:29:09.809Z,1030.78
2019-02-26T08:30:24.071Z,1030.84
2019-02-26T08:31:34.966Z,1030.78
2019-02-26T08:32:56.262Z,1030.85
2019-02-26T08:34:14.164Z,1030.84
2019-02-26T08:35:25.679Z,1030.85
2019-02-26T08:36:34.824Z,1030.83
2019-02-26T08:37:49.269Z,1030.82
2019-02-26T08:38:58.904Z,1030.86
2019-02-26T08:40:09.473Z,1030.85
2019-02-26T08:41:18.856Z,1030.84
2019-02-26T08:42:28.240Z,1030.89
2019-02-26T08:43:37.859Z,1030.82
2019-02-26T08:44:59.326Z,1030.85
2019-02-26T08:46:09.195Z,1030.89
2019-02-26T08:47:24.125Z,1030.87
2019-02-26T08:48:33.516Z,1030.9
2019-02-26T08:49:51.208Z,1030.86
2019-02-26T08:51:08.840Z,1030.81
2019-02-26T08:52:27.354Z,1030.82
2019-02-26T08:53:38.638Z,1030.76
2019-02-26T08:54:55.891Z,1030.76
2019-02-26T08:56:08.402Z,1030.74
2019-02-26T08:57:19.168Z,1030.73
2019-02-26T08:58:28.639Z,1030.74
2019-02-26T08:59:37.946Z,1030.69
2019-02-26T09:00:55.312Z,1030.68
2019-02-26T09:02:04.481Z,1030.72
2019-02-26T09:03:15.569Z,1030.72
2019-02-26T09:04:27.116Z,1030.73
2019-02-26T09:05:42.371Z,1030.76
2019-02-26T09:06:57.520Z,1030.73
2019-02-26T09:08:10.851Z,1030.72
2019-02-26T09:09:25.250Z,1030.69
2019-02-26T09:10:38.697Z,1030.73
2019-02-26T09:11:55.818Z,1030.7
2019-02-26T09:13:11.418Z,1030.67
2019-02-26T09:14:32.003Z,1030.66
2019-02-26T09:15:50.517Z,1030.67
2019-02-26T09:17:06.052Z,1030.71
2019-02-26T09:18:20.401Z,1030.66
2019-02-26T09:19:41.055Z,1030.7
2019-02-26T09:20:52.574Z,1030.71
2019-02-26T09:22:01.745Z,1030.69
2019-02-26T09:23:25.762Z,1030.66
2019-02-26T09:24:37.861Z,1030.65
2019-02-26T09:25:54.058Z,1030.64
2019-02-26T09:27:09.673Z,1030.61
2019-02-26T09:28:20.065Z,1030.55
2019-02-26T09:29:36.628Z,1030.58
2019-02-26T09:31:00.930Z,1030.58
2019-02-26T09:32:18.256Z,1030.6
2019-02-26T09:33:32.556Z,1030.59
2019-02-26T09:34:48.072Z,1030.62
2019-02-26T09:36:10.455Z,1030.62
2019-02-26T09:37:29.799Z,1030.59
2019-02-26T09:38:41.751Z,1030.65
2019-02-26T09:39:57.222Z,1030.61
2019-02-26T09:41:12.292Z,1030.63
2019-02-26T09:42:27.818Z,1030.64
2019-02-26T09:43:40.913Z,1030.67
2019-02-26T09:44:55.233Z,1030.67
2019-02-26T09:46:09.675Z,1030.71
2019-02-26T09:47:26.628Z,1030.72
2019-02-26T09:48:42.846Z,1030.67
2019-02-26T09:49:56.103Z,1030.7
2019-02-26T09:51:07.425Z,1030.73
2019-02-26T09:52:24.650Z,1030.73
2019-02-26T09:53:37.746Z,1030.68
2019-02-26T09:54:50.964Z,1030.69
2019-02-26T09:56:02.520Z,1030.67
2019-02-26T09:57:15.396Z,1030.64
2019-02-26T09:58:30.927Z,1030.65
2019-02-26T09:59:52.191Z,1030.66
2019-02-26T10:01:09.033Z,1030.63
2019-02-26T10:02:24.508Z,1030.63
2019-02-26T10:03:38.615Z,1030.58
2019-02-26T10:04:49.527Z,1030.58
2019-02-26T10:06:02.264Z,1030.64
2019-02-26T10:07:16.146Z,1030.65
2019-02-26T10:08:28.136Z,1030.63
2019-02-26T10:09:40.443Z,1030.64
2019-02-26T10:10:57.526Z,1030.62
2019-02-26T10:12:13.396Z,1030.69
2019-02-26T10:13:27.683Z,1030.67
2019-02-26T10:14:38.496Z,1030.72
2019-02-26T10:15:50.746Z,1030.71
2019-02-26T10:17:11.552Z,1030.68
2019-02-26T10:18:27.896Z,1030.67
2019-02-26T10:19:42.860Z,1030.7
2019-02-26T10:20:55.454Z,1030.68
2019-02-26T10:22:10.684Z,1030.68
2019-02-26T10:23:24.005Z,1030.69
2019-02-26T10:24:40.285Z,1030.74
2019-02-26T10:25:52.955Z,1030.74
2019-02-26T10:27:13.460Z,1030.67
2019-02-26T10:28:23.942Z,1030.74
2019-02-26T10:29:45.011Z,1030.73
2019-02-26T10:30:59.619Z,1030.73
2019-02-26T10:32:14.566Z,1030.74
2019-02-26T10:33:26.877Z,1030.78
2019-02-26T10:34:46.129Z,1030.75
2019-02-26T10:35:56.050Z,1030.78
2019-02-26T10:37:10.754Z,1030.77
2019-02-26T10:38:19.878Z,1030.75
2019-02-26T10:39:39.123Z,1030.79
2019-02-26T10:40:59.623Z,1030.74
2019-02-26T10:42:10.518Z,1030.77
2019-02-26T10:43:23.031Z,1030.77
2019-02-26T10:44:32.399Z,1030.76
2019-02-26T10:45:44.714Z,1030.75
2019-02-26T10:47:01.159Z,1030.73
2019-02-26T10:48:18.586Z,1030.75
2019-02-26T10:49:32.786Z,1030.71
2019-02-26T10:50:45.023Z,1030.68
2019-02-26T10:51:58.871Z,1030.64
2019-02-26T10:53:11.246Z,1030.64
2019-02-26T10:54:29.341Z,1030.62
2019-02-26T10:55:49.399Z,1030.64
2019-02-26T10:57:00.337Z,1030.61
2019-02-26T10:58:17.538Z,1030.6
2019-02-26T10:59:27.647Z,1030.6
2019-02-26T11:00:38.129Z,1030.59
2019-02-26T11:01:52.877Z,1030.6
2019-02-26T11:03:09.071Z,1030.6
2019-02-26T11:04:34.368Z,1030.6
2019-02-26T11:05:55.889Z,1030.57
2019-02-26T11:07:11.457Z,1030.58
2019-02-26T11:08:24.431Z,1030.58
2019-02-26T11:09:40.160Z,1030.58
2019-02-26T11:10:59.206Z,1030.58
2019-02-26T11:12:20.548Z,1030.56
2019-02-26T11:13:40.623Z,1030.54
2019-02-26T11:15:01.277Z,1030.53
2019-02-26T11:16:19.835Z,1030.54
2019-02-26T11:17:43.071Z,1030.55
2019-02-26T11:18:59.218Z,1030.55
2019-02-26T11:20:15.106Z,1030.57
2019-02-26T11:21:35.128Z,1030.53
2019-02-26T11:22:45.193Z,1030.51
2019-02-26T11:23:58.394Z,1030.52
2019-02-26T11:25:15.792Z,1030.54
2019-02-26T11:26:32.438Z,1030.51
2019-02-26T11:27:48.895Z,1030.49
2019-02-26T11:28:58.254Z,1030.48
2019-02-26T11:30:07.914Z,1030.41
2019-02-26T11:31:25.412Z,1030.4
2019-02-26T11:32:39.501Z,1030.39
2019-02-26T11:33:49.323Z,1030.36
2019-02-26T11:35:10.169Z,1030.33
2019-02-26T11:36:28.587Z,1030.33
2019-02-26T11:37:47.283Z,1030.35
2019-02-26T11:39:04.840Z,1030.32
2019-02-26T11:40:22.801Z,1030.29
2019-02-26T11:41:37.093Z,1030.31
2019-02-26T11:42:49.274Z,1030.24
2019-02-26T11:44:13.216Z,1030.23
2019-02-26T11:45:32.688Z,1030.19
2019-02-26T11:46:49.229Z,1030.18
2019-02-26T11:48:05.640Z,1030.17
2019-02-26T11:49:19.360Z,1030.17
2019-02-26T11:50:31.382Z,1030.17
2019-02-26T11:51:44.932Z,1030.18
2019-02-26T11:52:55.171Z,1030.2
2019-02-26T11:54:07.609Z,1030.16
2019-02-26T11:55:23.514Z,1030.16
2019-02-26T11:56:44.508Z,1030.13
2019-02-26T11:57:57.369Z,1030.13
2019-02-26T11:59:17.617Z,1030.09
2019-02-26T12:00:32.003Z,1030.11
2019-02-26T12:01:54.117Z,1030.06
2019-02-26T12:03:09.143Z,1030.08
2019-02-26T12:04:18.527Z,1030.07
2019-02-26T12:05:32.921Z,1030.05
2019-02-26T12:06:46.865Z,1030.04
2019-02-26T12:08:00.858Z,1030.04
2019-02-26T12:09:14.139Z,1030
2019-02-26T12:10:26.827Z,1030.02
2019-02-26T12:11:43.859Z,1029.97
2019-02-26T12:12:54.002Z,1029.96
2019-02-26T12:14:10.829Z,1029.92
2019-02-26T12:15:29.695Z,1029.91
2019-02-26T12:16:46.425Z,1029.85
2019-02-26T12:17:56.393Z,1029.89
2019-02-26T12:19:08.645Z,1029.85
2019-02-26T12:20:21.958Z,1029.81
2019-02-26T12:21:37.007Z,1029.82
2019-02-26T12:22:52.264Z,1029.82
2019-02-26T12:24:03.317Z,1029.75
